sensor_id;sensor_type;location;lat;lon;timestamp;pressure;altitude;pressure_sealevel;temperature
64916;BMP280;51427;-27.442;153.014;2022-10-20T00:01:06;101711.13;;;25.75
64916;BMP280;51427;-27.442;153.014;2022-10-20T00:03:34;101710.63;;;25.88
64916;BMP280;51427;-27.442;153.014;2022-10-20T00:06:10;101709.97;;;26.33
64916;BMP280;51427;-27.442;153.014;2022-10-20T00:08:38;101702.19;;;25.84
64916;BMP280;51427;-27.442;153.014;2022-10-20T00:11:08;101688.41;;;25.89
64916;BMP280;51427;-27.442;153.014;2022-10-20T00:13:36;101687.06;;;26.08
64916;BMP280;51427;-27.442;153.014;2022-10-20T00:16:05;101688.88;;;25.60
64916;BMP280;51427;-27.442;153.014;2022-10-20T00:18:32;101688.22;;;25.66
64916;BMP280;51427;-27.442;153.014;2022-10-20T00:21:03;101686.75;;;25.88
64916;BMP280;51427;-27.442;153.014;2022-10-20T00:23:30;101684.31;;;25.05
64916;BMP280;51427;-27.442;153.014;2022-10-20T00:26:10;101678.47;;;25.67
64916;BMP280;51427;-27.442;153.014;2022-10-20T00:28:37;101683.28;;;25.79
64916;BMP280;51427;-27.442;153.014;2022-10-20T00:31:06;101670.63;;;26.05
64916;BMP280;51427;-27.442;153.014;2022-10-20T00:33:34;101663.16;;;26.08
64916;BMP280;51427;-27.442;153.014;2022-10-20T00:36:07;101668.16;;;25.96
64916;BMP280;51427;-27.442;153.014;2022-10-20T00:38:34;101668.31;;;25.70
64916;BMP280;51427;-27.442;153.014;2022-10-20T00:41:02;101671.63;;;25.56
64916;BMP280;51427;-27.442;153.014;2022-10-20T00:43:54;101666.00;;;25.67
64916;BMP280;51427;-27.442;153.014;2022-10-20T00:49:40;101657.78;;;26.24
64916;BMP280;51427;-27.442;153.014;2022-10-20T00:51:49;101657.31;;;26.21
64916;BMP280;51427;-27.442;153.014;2022-10-20T00:54:25;101670.44;;;25.35
64916;BMP280;51427;-27.442;153.014;2022-10-20T00:56:54;101648.53;;;25.57
64916;BMP280;51427;-27.442;153.014;2022-10-20T00:59:27;101639.25;;;25.85
64916;BMP280;51427;-27.442;153.014;2022-10-20T01:01:56;101646.88;;;25.88
64916;BMP280;51427;-27.442;153.014;2022-10-20T01:04:26;101647.75;;;25.88
64916;BMP280;51427;-27.442;153.014;2022-10-20T01:06:54;101654.88;;;25.56
64916;BMP280;51427;-27.442;153.014;2022-10-20T01:09:22;101639.72;;;26.04
64916;BMP280;51427;-27.442;153.014;2022-10-20T01:28:19;101624.53;;;25.74
64916;BMP280;51427;-27.442;153.014;2022-10-20T01:30:55;101627.16;;;25.43
64916;BMP280;51427;-27.442;153.014;2022-10-20T01:33:41;101624.16;;;25.53
64916;BMP280;51427;-27.442;153.014;2022-10-20T01:36:29;101622.16;;;25.24
64916;BMP280;51427;-27.442;153.014;2022-10-20T01:41:39;101626.16;;;25.51
64916;BMP280;51427;-27.442;153.014;2022-10-20T01:44:11;101610.06;;;25.45
64916;BMP280;51427;-27.442;153.014;2022-10-20T01:46:40;101599.06;;;25.01
64916;BMP280;51427;-27.442;153.014;2022-10-20T01:49:09;101589.66;;;25.46
64916;BMP280;51427;-27.442;153.014;2022-10-20T01:51:37;101586.50;;;25.42
64916;BMP280;51427;-27.442;153.014;2022-10-20T01:54:04;101577.84;;;25.88
64916;BMP280;51427;-27.442;153.014;2022-10-20T02:00:12;101568.56;;;25.60
64916;BMP280;51427;-27.442;153.014;2022-10-20T02:03:07;101552.78;;;24.95
64916;BMP280;51427;-27.442;153.014;2022-10-20T02:08:29;101555.97;;;25.38
64916;BMP280;51427;-27.442;153.014;2022-10-20T02:11:01;101536.84;;;25.90
64916;BMP280;51427;-27.442;153.014;2022-10-20T02:13:30;101535.94;;;26.05
64916;BMP280;51427;-27.442;153.014;2022-10-20T02:15:59;101537.38;;;25.54
64916;BMP280;51427;-27.442;153.014;2022-10-20T02:18:35;101541.88;;;26.15
64916;BMP280;51427;-27.442;153.014;2022-10-20T02:21:06;101537.22;;;25.48
64916;BMP280;51427;-27.442;153.014;2022-10-20T02:23:37;101538.50;;;25.91
64916;BMP280;51427;-27.442;153.014;2022-10-20T02:26:12;101527.59;;;26.16
64916;BMP280;51427;-27.442;153.014;2022-10-20T02:28:43;101539.88;;;25.48
64916;BMP280;51427;-27.442;153.014;2022-10-20T02:31:12;101530.16;;;26.02
64916;BMP280;51427;-27.442;153.014;2022-10-20T02:33:40;101533.56;;;25.56
64916;BMP280;51427;-27.442;153.014;2022-10-20T02:36:14;101537.06;;;25.33
64916;BMP280;51427;-27.442;153.014;2022-10-20T02:38:42;101537.06;;;25.33
64916;BMP280;51427;-27.442;153.014;2022-10-20T02:41:09;101541.34;;;25.74
64916;BMP280;51427;-27.442;153.014;2022-10-20T02:43:37;101527.09;;;25.75
64916;BMP280;51427;-27.442;153.014;2022-10-20T02:46:04;101524.94;;;25.62
64916;BMP280;51427;-27.442;153.014;2022-10-20T02:48:31;101516.06;;;25.94
64916;BMP280;51427;-27.442;153.014;2022-10-20T02:50:59;101521.31;;;25.40
64916;BMP280;51427;-27.442;153.014;2022-10-20T02:53:26;101511.97;;;26.21
64916;BMP280;51427;-27.442;153.014;2022-10-20T02:55:53;101510.88;;;26.00
64916;BMP280;51427;-27.442;153.014;2022-10-20T02:58:20;101504.78;;;26.38
64916;BMP280;51427;-27.442;153.014;2022-10-20T03:00:49;101496.28;;;26.42
64916;BMP280;51427;-27.442;153.014;2022-10-20T03:03:17;101507.38;;;26.45
64916;BMP280;51427;-27.442;153.014;2022-10-20T03:05:44;101498.31;;;26.62
64916;BMP280;51427;-27.442;153.014;2022-10-20T03:08:13;101498.94;;;26.04
64916;BMP280;51427;-27.442;153.014;2022-10-20T03:10:41;101499.16;;;25.87
64916;BMP280;51427;-27.442;153.014;2022-10-20T03:13:09;101494.75;;;26.09
64916;BMP280;51427;-27.442;153.014;2022-10-20T03:15:37;101493.78;;;26.41
64916;BMP280;51427;-27.442;153.014;2022-10-20T03:18:05;101491.19;;;26.25
64916;BMP280;51427;-27.442;153.014;2022-10-20T03:20:32;101488.56;;;26.17
64916;BMP280;51427;-27.442;153.014;2022-10-20T03:22:59;101492.63;;;26.05
64916;BMP280;51427;-27.442;153.014;2022-10-20T03:25:27;101492.84;;;25.96
64916;BMP280;51427;-27.442;153.014;2022-10-20T03:27:54;101491.75;;;25.66
64916;BMP280;51427;-27.442;153.014;2022-10-20T03:30:21;101489.34;;;26.63
64916;BMP280;51427;-27.442;153.014;2022-10-20T03:32:48;101490.66;;;26.37
64916;BMP280;51427;-27.442;153.014;2022-10-20T03:35:16;101489.13;;;25.43
64916;BMP280;51427;-27.442;153.014;2022-10-20T03:37:43;101482.72;;;26.21
64916;BMP280;51427;-27.442;153.014;2022-10-20T03:40:10;101488.78;;;25.53
64916;BMP280;51427;-27.442;153.014;2022-10-20T03:42:37;101474.75;;;25.83
64916;BMP280;51427;-27.442;153.014;2022-10-20T03:45:05;101474.47;;;25.70
64916;BMP280;51427;-27.442;153.014;2022-10-20T03:47:32;101472.53;;;26.02
64916;BMP280;51427;-27.442;153.014;2022-10-20T03:50:00;101483.84;;;25.35
64916;BMP280;51427;-27.442;153.014;2022-10-20T03:52:27;101475.81;;;25.66
64916;BMP280;51427;-27.442;153.014;2022-10-20T03:54:54;101482.03;;;25.89
64916;BMP280;51427;-27.442;153.014;2022-10-20T03:57:21;101475.47;;;25.69
64916;BMP280;51427;-27.442;153.014;2022-10-20T03:59:49;101466.19;;;25.73
64916;BMP280;51427;-27.442;153.014;2022-10-20T04:02:39;101472.66;;;25.55
64916;BMP280;51427;-27.442;153.014;2022-10-20T04:05:09;101461.03;;;26.10
64916;BMP280;51427;-27.442;153.014;2022-10-20T04:07:38;101456.81;;;25.93
64916;BMP280;51427;-27.442;153.014;2022-10-20T04:10:06;101463.91;;;25.47
64916;BMP280;51427;-27.442;153.014;2022-10-20T04:12:34;101452.50;;;25.92
64916;BMP280;51427;-27.442;153.014;2022-10-20T04:15:01;101446.88;;;25.87
64916;BMP280;51427;-27.442;153.014;2022-10-20T04:17:28;101439.13;;;25.78
64916;BMP280;51427;-27.442;153.014;2022-10-20T04:19:55;101450.22;;;25.81
64916;BMP280;51427;-27.442;153.014;2022-10-20T04:22:23;101430.50;;;25.76
64916;BMP280;51427;-27.442;153.014;2022-10-20T04:24:50;101430.03;;;26.02
64916;BMP280;51427;-27.442;153.014;2022-10-20T04:27:17;101434.19;;;26.57
64916;BMP280;51427;-27.442;153.014;2022-10-20T04:29:46;101429.59;;;26.21
64916;BMP280;51427;-27.442;153.014;2022-10-20T04:32:13;101418.94;;;25.99
64916;BMP280;51427;-27.442;153.014;2022-10-20T04:34:40;101421.81;;;25.90
64916;BMP280;51427;-27.442;153.014;2022-10-20T04:37:08;101416.94;;;26.53
64916;BMP280;51427;-27.442;153.014;2022-10-20T04:39:35;101410.78;;;26.00
64916;BMP280;51427;-27.442;153.014;2022-10-20T04:42:02;101415.97;;;25.94
64916;BMP280;51427;-27.442;153.014;2022-10-20T04:44:29;101393.59;;;26.63
64916;BMP280;51427;-27.442;153.014;2022-10-20T04:46:56;101400.41;;;26.13
64916;BMP280;51427;-27.442;153.014;2022-10-20T04:49:24;101403.34;;;26.18
64916;BMP280;51427;-27.442;153.014;2022-10-20T04:51:51;101403.91;;;26.14
64916;BMP280;51427;-27.442;153.014;2022-10-20T04:54:18;101398.31;;;25.71
64916;BMP280;51427;-27.442;153.014;2022-10-20T04:56:45;101398.59;;;25.30
64916;BMP280;51427;-27.442;153.014;2022-10-20T04:59:12;101409.56;;;24.95
64916;BMP280;51427;-27.442;153.014;2022-10-20T05:01:40;101400.34;;;25.53
64916;BMP280;51427;-27.442;153.014;2022-10-20T05:04:08;101394.25;;;25.37
64916;BMP280;51427;-27.442;153.014;2022-10-20T05:06:36;101389.22;;;25.49
64916;BMP280;51427;-27.442;153.014;2022-10-20T05:09:05;101397.53;;;25.54
64916;BMP280;51427;-27.442;153.014;2022-10-20T05:11:35;101402.38;;;25.89
64916;BMP280;51427;-27.442;153.014;2022-10-20T05:14:02;101406.28;;;25.63
64916;BMP280;51427;-27.442;153.014;2022-10-20T05:16:30;101397.19;;;25.65
64916;BMP280;51427;-27.442;153.014;2022-10-20T05:18:57;101394.69;;;25.56
64916;BMP280;51427;-27.442;153.014;2022-10-20T05:21:27;101388.63;;;25.40
64916;BMP280;51427;-27.442;153.014;2022-10-20T05:23:59;101381.22;;;25.73
64916;BMP280;51427;-27.442;153.014;2022-10-20T05:26:28;101406.13;;;25.64
64916;BMP280;51427;-27.442;153.014;2022-10-20T05:29:01;101401.75;;;25.33
64916;BMP280;51427;-27.442;153.014;2022-10-20T05:31:29;101386.91;;;25.54
64916;BMP280;51427;-27.442;153.014;2022-10-20T05:33:56;101387.50;;;25.80
64916;BMP280;51427;-27.442;153.014;2022-10-20T05:36:25;101387.13;;;25.83
64916;BMP280;51427;-27.442;153.014;2022-10-20T05:38:54;101391.81;;;25.73
64916;BMP280;51427;-27.442;153.014;2022-10-20T05:41:29;101392.69;;;25.04
64916;BMP280;51427;-27.442;153.014;2022-10-20T05:43:59;101396.16;;;25.58
64916;BMP280;51427;-27.442;153.014;2022-10-20T05:46:32;101390.31;;;25.33
64916;BMP280;51427;-27.442;153.014;2022-10-20T05:49:01;101393.47;;;25.28
64916;BMP280;51427;-27.442;153.014;2022-10-20T05:51:32;101396.78;;;25.22
64916;BMP280;51427;-27.442;153.014;2022-10-20T05:53:59;101395.25;;;25.44
64916;BMP280;51427;-27.442;153.014;2022-10-20T05:56:28;101404.75;;;24.59
64916;BMP280;51427;-27.442;153.014;2022-10-20T05:58:56;101405.56;;;24.91
64916;BMP280;51427;-27.442;153.014;2022-10-20T06:01:25;101390.75;;;25.44
64916;BMP280;51427;-27.442;153.014;2022-10-20T06:03:55;101386.56;;;25.57
64916;BMP280;51427;-27.442;153.014;2022-10-20T06:06:27;101396.03;;;25.52
64916;BMP280;51427;-27.442;153.014;2022-10-20T06:08:58;101402.28;;;25.13
64916;BMP280;51427;-27.442;153.014;2022-10-20T06:11:26;101407.94;;;25.10
64916;BMP280;51427;-27.442;153.014;2022-10-20T06:13:56;101411.72;;;24.84
64916;BMP280;51427;-27.442;153.014;2022-10-20T06:16:25;101425.81;;;24.92
64916;BMP280;51427;-27.442;153.014;2022-10-20T06:18:52;101420.38;;;25.02
64916;BMP280;51427;-27.442;153.014;2022-10-20T06:21:22;101413.34;;;25.32
64916;BMP280;51427;-27.442;153.014;2022-10-20T06:23:50;101413.19;;;25.26
64916;BMP280;51427;-27.442;153.014;2022-10-20T06:26:22;101422.19;;;24.93
64916;BMP280;51427;-27.442;153.014;2022-10-20T06:28:55;101423.59;;;25.43
64916;BMP280;51427;-27.442;153.014;2022-10-20T06:31:25;101414.09;;;25.56
64916;BMP280;51427;-27.442;153.014;2022-10-20T06:33:53;101423.34;;;24.99
64916;BMP280;51427;-27.442;153.014;2022-10-20T06:36:22;101416.63;;;25.50
64916;BMP280;51427;-27.442;153.014;2022-10-20T06:38:56;101409.34;;;25.90
64916;BMP280;51427;-27.442;153.014;2022-10-20T06:41:25;101419.41;;;25.64
64916;BMP280;51427;-27.442;153.014;2022-10-20T06:43:53;101417.63;;;25.95
64916;BMP280;51427;-27.442;153.014;2022-10-20T06:46:26;101416.50;;;25.28
64916;BMP280;51427;-27.442;153.014;2022-10-20T06:48:53;101422.25;;;25.47
64916;BMP280;51427;-27.442;153.014;2022-10-20T06:51:21;101416.47;;;25.44
64916;BMP280;51427;-27.442;153.014;2022-10-20T06:53:50;101417.69;;;24.94
64916;BMP280;51427;-27.442;153.014;2022-10-20T06:56:22;101424.19;;;25.07
64916;BMP280;51427;-27.442;153.014;2022-10-20T06:58:52;101420.53;;;24.76
64916;BMP280;51427;-27.442;153.014;2022-10-20T07:03:56;101421.34;;;24.77
64916;BMP280;51427;-27.442;153.014;2022-10-20T07:06:35;101418.63;;;25.40
64916;BMP280;51427;-27.442;153.014;2022-10-20T07:09:04;101412.59;;;25.54
64916;BMP280;51427;-27.442;153.014;2022-10-20T07:11:34;101412.03;;;25.28
64916;BMP280;51427;-27.442;153.014;2022-10-20T07:14:02;101420.69;;;25.14
64916;BMP280;51427;-27.442;153.014;2022-10-20T07:16:32;101422.53;;;24.98
64916;BMP280;51427;-27.442;153.014;2022-10-20T07:19:00;101402.69;;;25.40
64916;BMP280;51427;-27.442;153.014;2022-10-20T07:21:29;101395.00;;;25.61
64916;BMP280;51427;-27.442;153.014;2022-10-20T07:23:59;101394.34;;;25.13
64916;BMP280;51427;-27.442;153.014;2022-10-20T07:26:28;101391.19;;;25.02
64916;BMP280;51427;-27.442;153.014;2022-10-20T07:29:01;101397.66;;;25.07
64916;BMP280;51427;-27.442;153.014;2022-10-20T07:31:35;101391.81;;;25.19
64916;BMP280;51427;-27.442;153.014;2022-10-20T07:34:04;101396.97;;;24.81
64916;BMP280;51427;-27.442;153.014;2022-10-20T07:36:33;101393.47;;;25.20
64916;BMP280;51427;-27.442;153.014;2022-10-20T07:39:03;101395.94;;;25.22
64916;BMP280;51427;-27.442;153.014;2022-10-20T07:41:33;101385.69;;;25.11
64916;BMP280;51427;-27.442;153.014;2022-10-20T07:44:00;101396.81;;;25.06
64916;BMP280;51427;-27.442;153.014;2022-10-20T07:46:27;101399.81;;;24.80
64916;BMP280;51427;-27.442;153.014;2022-10-20T07:48:54;101393.50;;;24.81
64916;BMP280;51427;-27.442;153.014;2022-10-20T07:54:00;101391.69;;;25.13
64916;BMP280;51427;-27.442;153.014;2022-10-20T07:56:33;101402.78;;;24.77
64916;BMP280;51427;-27.442;153.014;2022-10-20T07:59:01;101392.34;;;24.83
64916;BMP280;51427;-27.442;153.014;2022-10-20T08:01:28;101379.09;;;24.67
64916;BMP280;51427;-27.442;153.014;2022-10-20T08:03:55;101391.66;;;24.89
64916;BMP280;51427;-27.442;153.014;2022-10-20T08:06:23;101389.03;;;24.81
64916;BMP280;51427;-27.442;153.014;2022-10-20T08:08:51;101388.19;;;24.89
64916;BMP280;51427;-27.442;153.014;2022-10-20T08:11:18;101392.31;;;24.52
64916;BMP280;51427;-27.442;153.014;2022-10-20T08:13:45;101400.09;;;24.93
64916;BMP280;51427;-27.442;153.014;2022-10-20T08:16:14;101411.44;;;25.56
64916;BMP280;51427;-27.442;153.014;2022-10-20T08:18:41;101430.03;;;25.56
64916;BMP280;51427;-27.442;153.014;2022-10-20T08:23:43;101434.56;;;25.32
64916;BMP280;51427;-27.442;153.014;2022-10-20T08:26:15;101447.88;;;25.01
64916;BMP280;51427;-27.442;153.014;2022-10-20T08:28:43;101447.03;;;24.76
64916;BMP280;51427;-27.442;153.014;2022-10-20T08:31:10;101453.00;;;24.86
64916;BMP280;51427;-27.442;153.014;2022-10-20T08:33:37;101452.00;;;24.79
64916;BMP280;51427;-27.442;153.014;2022-10-20T08:36:08;101431.47;;;25.05
64916;BMP280;51427;-27.442;153.014;2022-10-20T08:38:37;101438.88;;;24.62
64916;BMP280;51427;-27.442;153.014;2022-10-20T08:41:11;101437.06;;;24.55
64916;BMP280;51427;-27.442;153.014;2022-10-20T08:43:41;101443.06;;;25.20
64916;BMP280;51427;-27.442;153.014;2022-10-20T08:46:20;101441.72;;;24.92
64916;BMP280;51427;-27.442;153.014;2022-10-20T08:48:49;101448.34;;;24.72
64916;BMP280;51427;-27.442;153.014;2022-10-20T08:51:22;101443.50;;;25.47
64916;BMP280;51427;-27.442;153.014;2022-10-20T08:53:55;101462.47;;;25.12
64916;BMP280;51427;-27.442;153.014;2022-10-20T08:56:28;101470.41;;;24.81
64916;BMP280;51427;-27.442;153.014;2022-10-20T08:58:55;101464.97;;;25.06
64916;BMP280;51427;-27.442;153.014;2022-10-20T09:01:28;101469.22;;;24.67
64916;BMP280;51427;-27.442;153.014;2022-10-20T09:06:55;101480.47;;;24.61
64916;BMP280;51427;-27.442;153.014;2022-10-20T09:09:23;101466.91;;;24.49
64916;BMP280;51427;-27.442;153.014;2022-10-20T09:11:51;101470.72;;;24.94
64916;BMP280;51427;-27.442;153.014;2022-10-20T09:14:22;101468.22;;;25.40
64916;BMP280;51427;-27.442;153.014;2022-10-20T09:16:49;101472.06;;;24.98
64916;BMP280;51427;-27.442;153.014;2022-10-20T09:19:19;101474.84;;;24.88
64916;BMP280;51427;-27.442;153.014;2022-10-20T09:21:52;101478.53;;;24.87
64916;BMP280;51427;-27.442;153.014;2022-10-20T09:24:22;101477.19;;;24.75
64916;BMP280;51427;-27.442;153.014;2022-10-20T09:26:50;101485.47;;;24.88
64916;BMP280;51427;-27.442;153.014;2022-10-20T09:29:21;101492.44;;;24.97
64916;BMP280;51427;-27.442;153.014;2022-10-20T09:31:51;101497.28;;;25.02
64916;BMP280;51427;-27.442;153.014;2022-10-20T09:34:30;101492.97;;;25.01
64916;BMP280;51427;-27.442;153.014;2022-10-20T09:45:03;101499.22;;;24.84
64916;BMP280;51427;-27.442;153.014;2022-10-20T09:47:32;101500.25;;;24.99
64916;BMP280;51427;-27.442;153.014;2022-10-20T09:50:06;101518.56;;;24.53
64916;BMP280;51427;-27.442;153.014;2022-10-20T09:52:36;101527.47;;;25.16
64916;BMP280;51427;-27.442;153.014;2022-10-20T09:55:32;101536.72;;;24.97
64916;BMP280;51427;-27.442;153.014;2022-10-20T09:58:01;101539.38;;;25.20
64916;BMP280;51427;-27.442;153.014;2022-10-20T10:00:31;101532.44;;;25.27
64916;BMP280;51427;-27.442;153.014;2022-10-20T10:03:20;101536.06;;;24.95
64916;BMP280;51427;-27.442;153.014;2022-10-20T10:05:55;101535.88;;;24.96
64916;BMP280;51427;-27.442;153.014;2022-10-20T10:08:28;101530.59;;;25.36
64916;BMP280;51427;-27.442;153.014;2022-10-20T10:11:15;101535.69;;;24.82
64916;BMP280;51427;-27.442;153.014;2022-10-20T10:13:48;101533.75;;;25.00
64916;BMP280;51427;-27.442;153.014;2022-10-20T10:16:20;101547.25;;;24.65
64916;BMP280;51427;-27.442;153.014;2022-10-20T10:19:00;101543.66;;;24.90
64916;BMP280;51427;-27.442;153.014;2022-10-20T10:21:40;101558.47;;;25.24
64916;BMP280;51427;-27.442;153.014;2022-10-20T10:24:38;101570.66;;;24.77
64916;BMP280;51427;-27.442;153.014;2022-10-20T10:27:38;101571.75;;;25.32
64916;BMP280;51427;-27.442;153.014;2022-10-20T10:30:36;101570.75;;;25.33
64916;BMP280;51427;-27.442;153.014;2022-10-20T10:33:26;101560.78;;;25.19
64916;BMP280;51427;-27.442;153.014;2022-10-20T10:35:53;101561.09;;;25.48
64916;BMP280;51427;-27.442;153.014;2022-10-20T10:38:21;101563.25;;;25.04
64916;BMP280;51427;-27.442;153.014;2022-10-20T10:41:05;101570.25;;;25.45
64916;BMP280;51427;-27.442;153.014;2022-10-20T10:43:48;101582.00;;;25.19
64916;BMP280;51427;-27.442;153.014;2022-10-20T10:46:25;101593.28;;;25.45
64916;BMP280;51427;-27.442;153.014;2022-10-20T10:51:34;101607.81;;;24.93
64916;BMP280;51427;-27.442;153.014;2022-10-20T10:54:33;101601.22;;;25.92
64916;BMP280;51427;-27.442;153.014;2022-10-20T10:57:09;101612.94;;;24.87
64916;BMP280;51427;-27.442;153.014;2022-10-20T10:59:43;101610.72;;;25.39
64916;BMP280;51427;-27.442;153.014;2022-10-20T11:08:05;101625.81;;;25.31
64916;BMP280;51427;-27.442;153.014;2022-10-20T11:10:56;101633.16;;;25.68
64916;BMP280;51427;-27.442;153.014;2022-10-20T11:16:07;101632.44;;;25.58
64916;BMP280;51427;-27.442;153.014;2022-10-20T11:26:44;101649.41;;;24.93
64916;BMP280;51427;-27.442;153.014;2022-10-20T11:29:18;101634.28;;;25.42
64916;BMP280;51427;-27.442;153.014;2022-10-20T11:32:02;101634.41;;;25.25
64916;BMP280;51427;-27.442;153.014;2022-10-20T11:37:06;101623.47;;;25.36
64916;BMP280;51427;-27.442;153.014;2022-10-20T11:39:47;101635.78;;;25.84
64916;BMP280;51427;-27.442;153.014;2022-10-20T11:44:51;101639.66;;;24.93
64916;BMP280;51427;-27.442;153.014;2022-10-20T11:47:33;101641.41;;;25.26
64916;BMP280;51427;-27.442;153.014;2022-10-20T11:50:06;101638.25;;;25.22
64916;BMP280;51427;-27.442;153.014;2022-10-20T11:56:12;101635.22;;;25.02
64916;BMP280;51427;-27.442;153.014;2022-10-20T11:59:03;101632.06;;;25.06
64916;BMP280;51427;-27.442;153.014;2022-10-20T12:02:24;101625.16;;;25.29
64916;BMP280;51427;-27.442;153.014;2022-10-20T12:08:07;101604.06;;;25.51
64916;BMP280;51427;-27.442;153.014;2022-10-20T12:16:04;101592.66;;;24.70
64916;BMP280;51427;-27.442;153.014;2022-10-20T12:18:34;101593.66;;;24.69
64916;BMP280;51427;-27.442;153.014;2022-10-20T12:21:06;101584.84;;;25.41
64916;BMP280;51427;-27.442;153.014;2022-10-20T12:26:34;101574.06;;;25.35
64916;BMP280;51427;-27.442;153.014;2022-10-20T12:34:52;101565.44;;;25.09
64916;BMP280;51427;-27.442;153.014;2022-10-20T12:37:36;101574.63;;;24.65
64916;BMP280;51427;-27.442;153.014;2022-10-20T12:42:44;101562.13;;;23.84
64916;BMP280;51427;-27.442;153.014;2022-10-20T12:47:57;101550.38;;;24.53
64916;BMP280;51427;-27.442;153.014;2022-10-20T12:50:33;101547.69;;;24.37
64916;BMP280;51427;-27.442;153.014;2022-10-20T12:58:30;101546.97;;;23.94
64916;BMP280;51427;-27.442;153.014;2022-10-20T13:03:48;101529.28;;;24.02
64916;BMP280;51427;-27.442;153.014;2022-10-20T13:16:57;101529.44;;;24.99
64916;BMP280;51427;-27.442;153.014;2022-10-20T13:19:37;101539.78;;;24.53
64916;BMP280;51427;-27.442;153.014;2022-10-20T13:22:34;101528.63;;;24.33
64916;BMP280;51427;-27.442;153.014;2022-10-20T13:25:09;101519.78;;;24.25
64916;BMP280;51427;-27.442;153.014;2022-10-20T13:27:37;101505.97;;;24.55
64916;BMP280;51427;-27.442;153.014;2022-10-20T13:30:09;101516.56;;;24.55
64916;BMP280;51427;-27.442;153.014;2022-10-20T13:33:26;101510.91;;;24.34
64916;BMP280;51427;-27.442;153.014;2022-10-20T13:35:32;101500.97;;;24.44
64916;BMP280;51427;-27.442;153.014;2022-10-20T13:38:21;101510.59;;;24.45
64916;BMP280;51427;-27.442;153.014;2022-10-20T13:41:04;101504.50;;;24.60
64916;BMP280;51427;-27.442;153.014;2022-10-20T13:44:11;101508.53;;;24.31
64916;BMP280;51427;-27.442;153.014;2022-10-20T13:49:50;101502.66;;;24.60
64916;BMP280;51427;-27.442;153.014;2022-10-20T13:52:20;101502.88;;;24.67
64916;BMP280;51427;-27.442;153.014;2022-10-20T13:54:49;101498.34;;;24.52
64916;BMP280;51427;-27.442;153.014;2022-10-20T13:57:28;101508.59;;;24.47
64916;BMP280;51427;-27.442;153.014;2022-10-20T14:02:59;101505.88;;;24.31
64916;BMP280;51427;-27.442;153.014;2022-10-20T14:05:29;101499.69;;;24.48
64916;BMP280;51427;-27.442;153.014;2022-10-20T14:07:59;101509.06;;;24.34
64916;BMP280;51427;-27.442;153.014;2022-10-20T14:13:18;101485.97;;;24.84
64916;BMP280;51427;-27.442;153.014;2022-10-20T14:15:55;101488.78;;;24.74
64916;BMP280;51427;-27.442;153.014;2022-10-20T14:18:30;101485.47;;;24.64
64916;BMP280;51427;-27.442;153.014;2022-10-20T14:21:03;101481.16;;;24.71
64916;BMP280;51427;-27.442;153.014;2022-10-20T14:23:38;101469.22;;;24.67
64916;BMP280;51427;-27.442;153.014;2022-10-20T14:26:20;101469.66;;;24.39
64916;BMP280;51427;-27.442;153.014;2022-10-20T14:28:49;101474.09;;;24.31
64916;BMP280;51427;-27.442;153.014;2022-10-20T14:31:21;101473.53;;;24.19
64916;BMP280;51427;-27.442;153.014;2022-10-20T14:33:50;101469.56;;;24.72
64916;BMP280;51427;-27.442;153.014;2022-10-20T14:36:26;101462.25;;;24.51
64916;BMP280;51427;-27.442;153.014;2022-10-20T14:38:56;101451.31;;;24.54
64916;BMP280;51427;-27.442;153.014;2022-10-20T14:41:30;101445.38;;;24.75
64916;BMP280;51427;-27.442;153.014;2022-10-20T14:44:07;101449.31;;;24.32
64916;BMP280;51427;-27.442;153.014;2022-10-20T14:46:44;101444.63;;;24.26
64916;BMP280;51427;-27.442;153.014;2022-10-20T14:51:55;101439.91;;;24.69
64916;BMP280;51427;-27.442;153.014;2022-10-20T14:54:34;101447.69;;;24.86
64916;BMP280;51427;-27.442;153.014;2022-10-20T14:59:56;101436.75;;;24.81
64916;BMP280;51427;-27.442;153.014;2022-10-20T15:02:35;101447.69;;;24.70
64916;BMP280;51427;-27.442;153.014;2022-10-20T15:08:05;101434.09;;;24.81
64916;BMP280;51427;-27.442;153.014;2022-10-20T15:10:33;101436.06;;;24.63
64916;BMP280;51427;-27.442;153.014;2022-10-20T15:13:00;101429.13;;;24.78
64916;BMP280;51427;-27.442;153.014;2022-10-20T15:15:35;101422.19;;;25.09
64916;BMP280;51427;-27.442;153.014;2022-10-20T15:23:20;101423.47;;;24.42
64916;BMP280;51427;-27.442;153.014;2022-10-20T15:25:53;101405.91;;;24.80
64916;BMP280;51427;-27.442;153.014;2022-10-20T15:28:46;101407.44;;;24.75
64916;BMP280;51427;-27.442;153.014;2022-10-20T15:31:22;101403.63;;;24.93
64916;BMP280;51427;-27.442;153.014;2022-10-20T15:33:50;101407.41;;;24.43
64916;BMP280;51427;-27.442;153.014;2022-10-20T15:36:23;101401.78;;;24.62
64916;BMP280;51427;-27.442;153.014;2022-10-20T15:38:55;101395.66;;;24.46
64916;BMP280;51427;-27.442;153.014;2022-10-20T15:41:32;101400.28;;;24.52
64916;BMP280;51427;-27.442;153.014;2022-10-20T15:44:14;101398.59;;;24.35
64916;BMP280;51427;-27.442;153.014;2022-10-20T15:46:42;101385.72;;;24.56
64916;BMP280;51427;-27.442;153.014;2022-10-20T15:49:13;101392.31;;;24.52
64916;BMP280;51427;-27.442;153.014;2022-10-20T15:51:45;101386.03;;;24.60
64916;BMP280;51427;-27.442;153.014;2022-10-20T15:54:14;101378.28;;;24.75
64916;BMP280;51427;-27.442;153.014;2022-10-20T15:56:42;101382.06;;;24.41
64916;BMP280;51427;-27.442;153.014;2022-10-20T15:59:10;101376.59;;;24.82
64916;BMP280;51427;-27.442;153.014;2022-10-20T16:01:37;101370.47;;;24.50
64916;BMP280;51427;-27.442;153.014;2022-10-20T16:04:20;101376.09;;;24.78
64916;BMP280;51427;-27.442;153.014;2022-10-20T16:06:57;101375.03;;;24.24